sensor_id;sensor_type;location;lat;lon;timestamp;pressure;altitude;pressure_sealevel;temperature;humidity
76205;BME280;64986;55.672;37.628;2024-02-26T10:33:20;100505.88;;;4.61;nan
76205;BME280;64986;55.672;37.628;2024-02-26T10:35:46;100504.50;;;4.57;nan
76205;BME280;64986;55.672;37.628;2024-02-26T10:38:12;100492.91;;;4.79;nan
76205;BME280;64986;55.672;37.628;2024-02-26T10:40:38;100500.53;;;5.27;nan
76205;BME280;64986;55.672;37.628;2024-02-26T10:43:04;100506.38;;;5.39;nan
76205;BME280;64986;55.672;37.628;2024-02-26T10:45:29;100502.41;;;6.16;nan
76205;BME280;64986;55.672;37.628;2024-02-26T10:47:55;100514.81;;;5.96;nan
76205;BME280;64986;55.672;37.628;2024-02-26T10:50:20;100510.78;;;5.84;nan
76205;BME280;64986;55.672;37.628;2024-02-26T10:52:46;100508.75;;;5.33;nan
76205;BME280;64986;55.672;37.628;2024-02-26T10:55:22;100508.78;;;6.14;nan
76205;BME280;64986;55.672;37.628;2024-02-26T10:57:49;100503.84;;;6.10;nan
76205;BME280;64986;55.672;37.628;2024-02-26T11:00:16;100495.13;;;6.46;nan
76205;BME280;64986;55.672;37.628;2024-02-26T11:02:44;100498.38;;;6.04;nan
76205;BME280;64986;55.672;37.628;2024-02-26T11:05:11;100491.81;;;6.18;nan
76205;BME280;64986;55.672;37.628;2024-02-26T11:07:37;100488.59;;;6.76;nan
76205;BME280;64986;55.672;37.628;2024-02-26T11:10:05;100599.53;;;7.77;nan
76205;BME280;64986;55.672;37.628;2024-02-26T11:12:35;100480.47;;;6.53;nan
76205;BME280;64986;55.672;37.628;2024-02-26T11:15:04;100488.00;;;5.76;nan
76205;BME280;64986;55.672;37.628;2024-02-26T11:17:29;100470.63;;;6.73;nan
76205;BME280;64986;55.672;37.628;2024-02-26T11:19:57;100468.19;;;8.37;nan
76205;BME280;64986;55.672;37.628;2024-02-26T11:22:26;100463.59;;;8.95;nan
76205;BME280;64986;55.672;37.628;2024-02-26T11:24:53;100476.66;;;9.96;nan
76205;BME280;64986;55.672;37.628;2024-02-26T11:27:31;100467.72;;;11.17;nan
76205;BME280;64986;55.672;37.628;2024-02-26T11:30:00;100465.75;;;11.19;nan
76205;BME280;64986;55.672;37.628;2024-02-26T11:32:27;100473.66;;;10.60;nan
76205;BME280;64986;55.672;37.628;2024-02-26T11:34:56;100456.22;;;10.88;nan
76205;BME280;64986;55.672;37.628;2024-02-26T11:37:22;100471.84;;;10.60;nan
76205;BME280;64986;55.672;37.628;2024-02-26T11:39:48;100466.94;;;10.57;nan
76205;BME280;64986;55.672;37.628;2024-02-26T11:42:16;100468.47;;;10.37;nan
76205;BME280;64986;55.672;37.628;2024-02-26T11:44:42;100466.94;;;10.19;nan
76205;BME280;64986;55.672;37.628;2024-02-26T11:47:12;100453.03;;;10.93;nan
76205;BME280;64986;55.672;37.628;2024-02-26T11:49:37;100460.25;;;11.35;nan
76205;BME280;64986;55.672;37.628;2024-02-26T11:52:07;100446.75;;;12.30;nan
76205;BME280;64986;55.672;37.628;2024-02-26T11:54:40;100449.38;;;12.58;nan
76205;BME280;64986;55.672;37.628;2024-02-26T11:57:24;100460.09;;;12.85;nan
76205;BME280;64986;55.672;37.628;2024-02-26T12:05:12;100445.06;;;14.92;nan
76205;BME280;64986;55.672;37.628;2024-02-26T12:07:46;100441.72;;;14.32;nan
76205;BME280;64986;55.672;37.628;2024-02-26T12:18:19;100438.66;;;13.69;nan
76205;BME280;64986;55.672;37.628;2024-02-26T12:20:45;100436.13;;;13.34;nan
76205;BME280;64986;55.672;37.628;2024-02-26T12:23:16;100440.50;;;10.80;nan
